sensor_id;sensor_type;location;lat;lon;timestamp;P1;durP1;ratioP1;P2;durP2;ratioP2
32786;SDS011;19139;49.372;8.580;2023-10-13T00:00:38;6.50;;;5.23;;
32786;SDS011;19139;49.372;8.580;2023-10-13T00:03:07;5.97;;;5.17;;
32786;SDS011;19139;49.372;8.580;2023-10-13T00:05:41;5.57;;;5.07;;
32786;SDS011;19139;49.372;8.580;2023-10-13T00:08:09;6.80;;;5.17;;
32786;SDS011;19139;49.372;8.580;2023-10-13T00:10:36;6.47;;;5.77;;
32786;SDS011;19139;49.372;8.580;2023-10-13T00:13:04;7.67;;;5.73;;
32786;SDS011;19139;49.372;8.580;2023-10-13T00:15:43;6.00;;;5.40;;
32786;SDS011;19139;49.372;8.580;2023-10-13T00:18:24;5.80;;;5.23;;
32786;SDS011;19139;49.372;8.580;2023-10-13T00:20:53;5.27;;;4.77;;
32786;SDS011;19139;49.372;8.580;2023-10-13T00:23:23;5.73;;;5.10;;
32786;SDS011;19139;49.372;8.580;2023-10-13T00:25:53;5.23;;;4.73;;
32786;SDS011;19139;49.372;8.580;2023-10-13T00:28:24;5.37;;;4.87;;
32786;SDS011;19139;49.372;8.580;2023-10-13T00:30:53;6.00;;;5.40;;
32786;SDS011;19139;49.372;8.580;2023-10-13T00:33:26;5.60;;;5.10;;
32786;SDS011;19139;49.372;8.580;2023-10-13T00:35:53;5.47;;;4.97;;
32786;SDS011;19139;49.372;8.580;2023-10-13T00:38:24;5.20;;;4.70;;
32786;SDS011;19139;49.372;8.580;2023-10-13T00:40:51;7.47;;;5.33;;
32786;SDS011;19139;49.372;8.580;2023-10-13T00:43:19;6.97;;;5.67;;
32786;SDS011;19139;49.372;8.580;2023-10-13T00:45:51;5.50;;;4.90;;
32786;SDS011;19139;49.372;8.580;2023-10-13T00:48:21;5.37;;;4.87;;
32786;SDS011;19139;49.372;8.580;2023-10-13T00:50:55;6.83;;;4.90;;
32786;SDS011;19139;49.372;8.580;2023-10-13T00:53:23;5.47;;;4.47;;
32786;SDS011;19139;49.372;8.580;2023-10-13T00:55:51;5.37;;;4.63;;
32786;SDS011;19139;49.372;8.580;2023-10-13T00:58:22;5.83;;;5.13;;
32786;SDS011;19139;49.372;8.580;2023-10-13T01:00:51;5.17;;;4.67;;
32786;SDS011;19139;49.372;8.580;2023-10-13T01:03:23;5.87;;;5.17;;
32786;SDS011;19139;49.372;8.580;2023-10-13T01:05:53;5.90;;;5.30;;
32786;SDS011;19139;49.372;8.580;2023-10-13T01:08:33;5.20;;;4.70;;
32786;SDS011;19139;49.372;8.580;2023-10-13T01:11:04;6.67;;;5.27;;
32786;SDS011;19139;49.372;8.580;2023-10-13T01:13:33;7.03;;;4.67;;
32786;SDS011;19139;49.372;8.580;2023-10-13T01:16:03;5.37;;;4.87;;
32786;SDS011;19139;49.372;8.580;2023-10-13T01:18:31;5.33;;;4.77;;
32786;SDS011;19139;49.372;8.580;2023-10-13T01:20:58;5.83;;;5.00;;
32786;SDS011;19139;49.372;8.580;2023-10-13T01:23:26;5.07;;;4.57;;
32786;SDS011;19139;49.372;8.580;2023-10-13T01:25:54;6.20;;;4.83;;
32786;SDS011;19139;49.372;8.580;2023-10-13T01:28:23;5.37;;;4.87;;
32786;SDS011;19139;49.372;8.580;2023-10-13T01:30:50;6.13;;;4.97;;
32786;SDS011;19139;49.372;8.580;2023-10-13T01:33:18;5.40;;;4.70;;
32786;SDS011;19139;49.372;8.580;2023-10-13T01:35:54;4.83;;;4.33;;
32786;SDS011;19139;49.372;8.580;2023-10-13T01:38:24;6.43;;;5.67;;
32786;SDS011;19139;49.372;8.580;2023-10-13T01:40:53;5.30;;;4.70;;
32786;SDS011;19139;49.372;8.580;2023-10-13T01:43:23;6.10;;;5.50;;
32786;SDS011;19139;49.372;8.580;2023-10-13T01:45:50;5.53;;;5.00;;
32786;SDS011;19139;49.372;8.580;2023-10-13T01:48:17;5.40;;;4.43;;
32786;SDS011;19139;49.372;8.580;2023-10-13T01:50:47;5.07;;;4.37;;
32786;SDS011;19139;49.372;8.580;2023-10-13T01:53:21;4.93;;;4.43;;
32786;SDS011;19139;49.372;8.580;2023-10-13T01:55:49;5.77;;;5.17;;
32786;SDS011;19139;49.372;8.580;2023-10-13T01:58:16;5.00;;;4.50;;
32786;SDS011;19139;49.372;8.580;2023-10-13T02:00:48;5.10;;;4.57;;
32786;SDS011;19139;49.372;8.580;2023-10-13T02:03:16;5.50;;;5.00;;
32786;SDS011;19139;49.372;8.580;2023-10-13T02:05:44;5.83;;;5.17;;
32786;SDS011;19139;49.372;8.580;2023-10-13T02:08:18;5.97;;;4.90;;
32786;SDS011;19139;49.372;8.580;2023-10-13T02:10:52;5.60;;;4.97;;
32786;SDS011;19139;49.372;8.580;2023-10-13T02:13:20;5.20;;;4.50;;
32786;SDS011;19139;49.372;8.580;2023-10-13T02:15:49;4.90;;;4.50;;
32786;SDS011;19139;49.372;8.580;2023-10-13T02:18:19;5.47;;;4.63;;
32786;SDS011;19139;49.372;8.580;2023-10-13T02:20:52;5.50;;;4.97;;
32786;SDS011;19139;49.372;8.580;2023-10-13T02:23:23;4.80;;;4.30;;
32786;SDS011;19139;49.372;8.580;2023-10-13T02:25:56;6.60;;;5.07;;
32786;SDS011;19139;49.372;8.580;2023-10-13T02:28:37;5.23;;;4.60;;
32786;SDS011;19139;49.372;8.580;2023-10-13T02:31:04;5.13;;;4.63;;
32786;SDS011;19139;49.372;8.580;2023-10-13T02:33:33;4.93;;;4.43;;
32786;SDS011;19139;49.372;8.580;2023-10-13T02:36:01;6.70;;;4.43;;
32786;SDS011;19139;49.372;8.580;2023-10-13T02:38:32;6.03;;;4.80;;
32786;SDS011;19139;49.372;8.580;2023-10-13T02:41:01;5.97;;;4.23;;
32786;SDS011;19139;49.372;8.580;2023-10-13T02:43:34;6.53;;;5.07;;
32786;SDS011;19139;49.372;8.580;2023-10-13T02:46:02;5.30;;;4.77;;
32786;SDS011;19139;49.372;8.580;2023-10-13T02:48:29;5.40;;;4.53;;
32786;SDS011;19139;49.372;8.580;2023-10-13T02:51:06;5.57;;;4.73;;
32786;SDS011;19139;49.372;8.580;2023-10-13T02:53:43;5.27;;;4.50;;
32786;SDS011;19139;49.372;8.580;2023-10-13T02:56:15;4.80;;;4.40;;
32786;SDS011;19139;49.372;8.580;2023-10-13T02:58:49;4.80;;;4.40;;
32786;SDS011;19139;49.372;8.580;2023-10-13T03:01:20;6.17;;;4.97;;
32786;SDS011;19139;49.372;8.580;2023-10-13T03:03:51;5.43;;;4.50;;
32786;SDS011;19139;49.372;8.580;2023-10-13T03:06:20;4.87;;;4.37;;
32786;SDS011;19139;49.372;8.580;2023-10-13T03:08:51;4.87;;;4.37;;
32786;SDS011;19139;49.372;8.580;2023-10-13T03:11:18;5.17;;;4.67;;
32786;SDS011;19139;49.372;8.580;2023-10-13T03:13:49;5.03;;;4.10;;
32786;SDS011;19139;49.372;8.580;2023-10-13T03:16:18;5.00;;;4.50;;
32786;SDS011;19139;49.372;8.580;2023-10-13T03:18:47;5.37;;;4.87;;
32786;SDS011;19139;49.372;8.580;2023-10-13T03:21:22;5.00;;;4.50;;
32786;SDS011;19139;49.372;8.580;2023-10-13T03:23:56;5.33;;;4.70;;
32786;SDS011;19139;49.372;8.580;2023-10-13T03:26:30;5.37;;;4.70;;
32786;SDS011;19139;49.372;8.580;2023-10-13T03:29:02;6.20;;;4.90;;
32786;SDS011;19139;49.372;8.580;2023-10-13T03:31:33;4.63;;;4.23;;
32786;SDS011;19139;49.372;8.580;2023-10-13T03:34:04;4.87;;;4.37;;
32786;SDS011;19139;49.372;8.580;2023-10-13T03:36:31;5.60;;;5.10;;
32786;SDS011;19139;49.372;8.580;2023-10-13T03:39:17;4.30;;;3.90;;
32786;SDS011;19139;49.372;8.580;2023-10-13T03:41:44;5.17;;;4.67;;
32786;SDS011;19139;49.372;8.580;2023-10-13T03:44:22;4.07;;;3.67;;
32786;SDS011;19139;49.372;8.580;2023-10-13T03:46:49;5.33;;;4.83;;
32786;SDS011;19139;49.372;8.580;2023-10-13T03:49:20;5.70;;;5.10;;
32786;SDS011;19139;49.372;8.580;2023-10-13T03:51:48;5.20;;;4.70;;
32786;SDS011;19139;49.372;8.580;2023-10-13T03:54:16;5.10;;;4.13;;
32786;SDS011;19139;49.372;8.580;2023-10-13T03:56:43;6.20;;;4.47;;
32786;SDS011;19139;49.372;8.580;2023-10-13T03:59:11;6.13;;;4.50;;
32786;SDS011;19139;49.372;8.580;2023-10-13T04:01:41;5.23;;;4.73;;
32786;SDS011;19139;49.372;8.580;2023-10-13T04:04:12;5.77;;;5.03;;
32786;SDS011;19139;49.372;8.580;2023-10-13T04:06:41;4.70;;;4.17;;
32786;SDS011;19139;49.372;8.580;2023-10-13T04:09:21;4.83;;;4.33;;
32786;SDS011;19139;49.372;8.580;2023-10-13T04:12:04;5.00;;;4.50;;
32786;SDS011;19139;49.372;8.580;2023-10-13T04:14:41;4.40;;;4.00;;
32786;SDS011;19139;49.372;8.580;2023-10-13T04:17:23;4.70;;;4.17;;
32786;SDS011;19139;49.372;8.580;2023-10-13T04:19:55;4.83;;;4.33;;
32786;SDS011;19139;49.372;8.580;2023-10-13T04:22:41;4.40;;;4.00;;
32786;SDS011;19139;49.372;8.580;2023-10-13T04:27:59;5.27;;;4.77;;
32786;SDS011;19139;49.372;8.580;2023-10-13T04:30:46;5.20;;;4.33;;
32786;SDS011;19139;49.372;8.580;2023-10-13T04:33:23;4.60;;;4.20;;
32786;SDS011;19139;49.372;8.580;2023-10-13T04:36:12;4.50;;;4.10;;
32786;SDS011;19139;49.372;8.580;2023-10-13T04:38:40;5.13;;;4.63;;
32786;SDS011;19139;49.372;8.580;2023-10-13T04:41:27;4.47;;;3.80;;
32786;SDS011;19139;49.372;8.580;2023-10-13T04:43:58;4.73;;;4.30;;
32786;SDS011;19139;49.372;8.580;2023-10-13T04:46:50;4.67;;;4.07;;
32786;SDS011;19139;49.372;8.580;2023-10-13T04:49:27;6.87;;;5.07;;
32786;SDS011;19139;49.372;8.580;2023-10-13T04:52:09;4.90;;;4.40;;
32786;SDS011;19139;49.372;8.580;2023-10-13T04:54:41;4.60;;;4.20;;
32786;SDS011;19139;49.372;8.580;2023-10-13T04:57:21;4.43;;;4.03;;
32786;SDS011;19139;49.372;8.580;2023-10-13T05:00:08;4.63;;;4.13;;
32786;SDS011;19139;49.372;8.580;2023-10-13T05:02:39;4.93;;;4.43;;
32786;SDS011;19139;49.372;8.580;2023-10-13T05:05:10;4.73;;;4.13;;
32786;SDS011;19139;49.372;8.580;2023-10-13T05:07:56;6.23;;;4.33;;
32786;SDS011;19139;49.372;8.580;2023-10-13T05:10:42;4.83;;;4.13;;
32786;SDS011;19139;49.372;8.580;2023-10-13T05:13:28;5.20;;;4.47;;
32786;SDS011;19139;49.372;8.580;2023-10-13T05:16:14;5.07;;;4.40;;
32786;SDS011;19139;49.372;8.580;2023-10-13T05:19:00;5.17;;;4.23;;
32786;SDS011;19139;49.372;8.580;2023-10-13T05:21:46;5.10;;;4.60;;
32786;SDS011;19139;49.372;8.580;2023-10-13T05:24:32;4.70;;;4.20;;
32786;SDS011;19139;49.372;8.580;2023-10-13T05:27:18;4.80;;;4.30;;
32786;SDS011;19139;49.372;8.580;2023-10-13T05:30:04;4.80;;;4.30;;
32786;SDS011;19139;49.372;8.580;2023-10-13T05:32:50;5.00;;;4.50;;
32786;SDS011;19139;49.372;8.580;2023-10-13T05:35:36;4.87;;;4.37;;
32786;SDS011;19139;49.372;8.580;2023-10-13T05:38:22;4.57;;;4.17;;
32786;SDS011;19139;49.372;8.580;2023-10-13T05:41:08;4.60;;;4.17;;
32786;SDS011;19139;49.372;8.580;2023-10-13T05:43:54;5.30;;;4.77;;
32786;SDS011;19139;49.372;8.580;2023-10-13T05:46:40;4.20;;;3.80;;
32786;SDS011;19139;49.372;8.580;2023-10-13T05:49:39;4.47;;;4.07;;
32786;SDS011;19139;49.372;8.580;2023-10-13T05:52:16;4.23;;;3.83;;
32786;SDS011;19139;49.372;8.580;2023-10-13T05:55:07;4.63;;;4.23;;
32786;SDS011;19139;49.372;8.580;2023-10-13T05:57:52;4.63;;;4.23;;
32786;SDS011;19139;49.372;8.580;2023-10-13T06:00:39;4.77;;;4.30;;
32786;SDS011;19139;49.372;8.580;2023-10-13T06:03:25;5.03;;;4.53;;
32786;SDS011;19139;49.372;8.580;2023-10-13T06:06:11;4.77;;;4.23;;
32786;SDS011;19139;49.372;8.580;2023-10-13T06:08:56;4.87;;;4.47;;
32786;SDS011;19139;49.372;8.580;2023-10-13T06:11:42;4.67;;;4.17;;
32786;SDS011;19139;49.372;8.580;2023-10-13T06:14:28;5.17;;;4.67;;
32786;SDS011;19139;49.372;8.580;2023-10-13T06:17:14;6.77;;;4.67;;
32786;SDS011;19139;49.372;8.580;2023-10-13T06:20:00;9.03;;;5.23;;
32786;SDS011;19139;49.372;8.580;2023-10-13T06:22:49;5.80;;;4.67;;
32786;SDS011;19139;49.372;8.580;2023-10-13T06:25:35;7.73;;;4.60;;
32786;SDS011;19139;49.372;8.580;2023-10-13T06:28:21;6.67;;;4.87;;
32786;SDS011;19139;49.372;8.580;2023-10-13T06:31:08;8.07;;;5.03;;
32786;SDS011;19139;49.372;8.580;2023-10-13T06:33:48;6.43;;;5.07;;
32786;SDS011;19139;49.372;8.580;2023-10-13T06:36:15;6.73;;;4.40;;
32786;SDS011;19139;49.372;8.580;2023-10-13T06:38:44;7.20;;;4.93;;
32786;SDS011;19139;49.372;8.580;2023-10-13T06:41:11;6.60;;;4.43;;
32786;SDS011;19139;49.372;8.580;2023-10-13T06:43:56;11.47;;;5.60;;
32786;SDS011;19139;49.372;8.580;2023-10-13T06:46:27;9.93;;;5.00;;
32786;SDS011;19139;49.372;8.580;2023-10-13T06:48:55;6.77;;;5.40;;
32786;SDS011;19139;49.372;8.580;2023-10-13T06:51:26;8.10;;;4.83;;
32786;SDS011;19139;49.372;8.580;2023-10-13T06:53:57;6.77;;;4.53;;
32786;SDS011;19139;49.372;8.580;2023-10-13T06:56:26;11.63;;;5.33;;
32786;SDS011;19139;49.372;8.580;2023-10-13T06:58:54;8.97;;;4.70;;
32786;SDS011;19139;49.372;8.580;2023-10-13T07:01:30;6.13;;;4.83;;
32786;SDS011;19139;49.372;8.580;2023-10-13T07:04:08;6.73;;;4.70;;
32786;SDS011;19139;49.372;8.580;2023-10-13T07:06:43;10.37;;;4.73;;
32786;SDS011;19139;49.372;8.580;2023-10-13T07:09:17;6.20;;;4.57;;
32786;SDS011;19139;49.372;8.580;2023-10-13T07:12:03;12.70;;;4.23;;
32786;SDS011;19139;49.372;8.580;2023-10-13T07:14:32;6.37;;;4.47;;
32786;SDS011;19139;49.372;8.580;2023-10-13T07:17:00;6.67;;;4.73;;
32786;SDS011;19139;49.372;8.580;2023-10-13T07:19:29;8.57;;;5.13;;
32786;SDS011;19139;49.372;8.580;2023-10-13T07:21:56;7.47;;;5.30;;
32786;SDS011;19139;49.372;8.580;2023-10-13T07:24:25;9.10;;;5.83;;
32786;SDS011;19139;49.372;8.580;2023-10-13T07:27:00;5.53;;;4.47;;
32786;SDS011;19139;49.372;8.580;2023-10-13T07:29:32;6.67;;;4.73;;
32786;SDS011;19139;49.372;8.580;2023-10-13T07:32:02;5.90;;;4.37;;
32786;SDS011;19139;49.372;8.580;2023-10-13T07:34:29;6.63;;;4.57;;
32786;SDS011;19139;49.372;8.580;2023-10-13T07:37:02;7.57;;;4.57;;
32786;SDS011;19139;49.372;8.580;2023-10-13T07:39:34;6.63;;;4.50;;
32786;SDS011;19139;49.372;8.580;2023-10-13T07:42:02;10.37;;;5.07;;
32786;SDS011;19139;49.372;8.580;2023-10-13T07:44:35;6.50;;;4.10;;
32786;SDS011;19139;49.372;8.580;2023-10-13T07:47:06;4.77;;;4.27;;
32786;SDS011;19139;49.372;8.580;2023-10-13T07:49:37;6.63;;;4.40;;
32786;SDS011;19139;49.372;8.580;2023-10-13T07:52:06;7.03;;;4.63;;
32786;SDS011;19139;49.372;8.580;2023-10-13T07:54:46;7.40;;;5.50;;
32786;SDS011;19139;49.372;8.580;2023-10-13T07:57:22;7.60;;;4.40;;
32786;SDS011;19139;49.372;8.580;2023-10-13T07:59:55;6.33;;;4.27;;
32786;SDS011;19139;49.372;8.580;2023-10-13T08:02:58;7.37;;;4.63;;
32786;SDS011;19139;49.372;8.580;2023-10-13T08:05:36;12.03;;;5.37;;
32786;SDS011;19139;49.372;8.580;2023-10-13T08:08:08;6.60;;;3.97;;
32786;SDS011;19139;49.372;8.580;2023-10-13T08:10:40;5.67;;;4.67;;
32786;SDS011;19139;49.372;8.580;2023-10-13T08:13:11;6.27;;;4.40;;
32786;SDS011;19139;49.372;8.580;2023-10-13T08:15:42;6.27;;;4.07;;
32786;SDS011;19139;49.372;8.580;2023-10-13T08:18:16;5.70;;;4.70;;
32786;SDS011;19139;49.372;8.580;2023-10-13T08:20:57;7.03;;;5.40;;
32786;SDS011;19139;49.372;8.580;2023-10-13T08:23:29;7.70;;;4.40;;
32786;SDS011;19139;49.372;8.580;2023-10-13T08:26:15;8.20;;;4.50;;
32786;SDS011;19139;49.372;8.580;2023-10-13T08:29:11;6.33;;;4.00;;
32786;SDS011;19139;49.372;8.580;2023-10-13T08:31:48;4.93;;;4.03;;
32786;SDS011;19139;49.372;8.580;2023-10-13T08:34:35;5.43;;;3.97;;
32786;SDS011;19139;49.372;8.580;2023-10-13T08:37:26;6.33;;;4.23;;
32786;SDS011;19139;49.372;8.580;2023-10-13T08:39:57;5.47;;;4.30;;
32786;SDS011;19139;49.372;8.580;2023-10-13T08:42:35;6.60;;;4.43;;
32786;SDS011;19139;49.372;8.580;2023-10-13T08:47:58;4.80;;;4.13;;
32786;SDS011;19139;49.372;8.580;2023-10-13T08:53:14;8.60;;;4.63;;
32786;SDS011;19139;49.372;8.580;2023-10-13T08:56:05;5.97;;;4.30;;
32786;SDS011;19139;49.372;8.580;2023-10-13T08:59:01;5.73;;;3.93;;
32786;SDS011;19139;49.372;8.580;2023-10-13T09:01:29;7.33;;;4.63;;
32786;SDS011;19139;49.372;8.580;2023-10-13T09:04:25;4.70;;;3.80;;
32786;SDS011;19139;49.372;8.580;2023-10-13T09:07:04;4.50;;;3.87;;
32786;SDS011;19139;49.372;8.580;2023-10-13T09:12:17;6.27;;;4.37;;
32786;SDS011;19139;49.372;8.580;2023-10-13T09:14:55;7.00;;;4.40;;
32786;SDS011;19139;49.372;8.580;2023-10-13T09:17:40;5.50;;;4.23;;
32786;SDS011;19139;49.372;8.580;2023-10-13T09:20:08;7.53;;;4.20;;
32786;SDS011;19139;49.372;8.580;2023-10-13T09:22:54;6.93;;;4.20;;
32786;SDS011;19139;49.372;8.580;2023-10-13T09:25:31;6.20;;;4.40;;
32786;SDS011;19139;49.372;8.580;2023-10-13T09:30:45;6.37;;;4.37;;
32786;SDS011;19139;49.372;8.580;2023-10-13T09:33:12;7.70;;;4.23;;
32786;SDS011;19139;49.372;8.580;2023-10-13T09:35:46;5.70;;;4.30;;
32786;SDS011;19139;49.372;8.580;2023-10-13T09:38:16;6.43;;;4.70;;
32786;SDS011;19139;49.372;8.580;2023-10-13T09:40:44;5.87;;;4.20;;
32786;SDS011;19139;49.372;8.580;2023-10-13T09:43:23;6.47;;;3.90;;
32786;SDS011;19139;49.372;8.580;2023-10-13T09:45:52;4.90;;;3.97;;
32786;SDS011;19139;49.372;8.580;2023-10-13T09:48:34;6.43;;;4.10;;
32786;SDS011;19139;49.372;8.580;2023-10-13T09:51:03;5.43;;;4.23;;
32786;SDS011;19139;49.372;8.580;2023-10-13T09:53:35;5.43;;;3.57;;
32786;SDS011;19139;49.372;8.580;2023-10-13T09:56:28;5.23;;;3.53;;
32786;SDS011;19139;49.372;8.580;2023-10-13T09:58:58;5.23;;;4.13;;
32786;SDS011;19139;49.372;8.580;2023-10-13T10:01:36;6.87;;;3.80;;
32786;SDS011;19139;49.372;8.580;2023-10-13T10:04:09;3.83;;;3.43;;
32786;SDS011;19139;49.372;8.580;2023-10-13T10:06:52;7.90;;;4.20;;
32786;SDS011;19139;49.372;8.580;2023-10-13T10:09:25;6.30;;;3.87;;
32786;SDS011;19139;49.372;8.580;2023-10-13T10:12:13;6.20;;;3.93;;
32786;SDS011;19139;49.372;8.580;2023-10-13T10:17:15;5.70;;;4.27;;
32786;SDS011;19139;49.372;8.580;2023-10-13T10:19:49;5.17;;;3.70;;
32786;SDS011;19139;49.372;8.580;2023-10-13T10:22:30;6.47;;;3.80;;
32786;SDS011;19139;49.372;8.580;2023-10-13T10:25:03;6.00;;;3.83;;
32786;SDS011;19139;49.372;8.580;2023-10-13T10:27:33;4.93;;;3.57;;
32786;SDS011;19139;49.372;8.580;2023-10-13T10:30:01;5.17;;;3.47;;
32786;SDS011;19139;49.372;8.580;2023-10-13T10:32:34;5.37;;;4.00;;
32786;SDS011;19139;49.372;8.580;2023-10-13T10:35:05;6.13;;;4.00;;
32786;SDS011;19139;49.372;8.580;2023-10-13T10:37:34;5.93;;;3.70;;
32786;SDS011;19139;49.372;8.580;2023-10-13T10:40:06;7.13;;;3.40;;
32786;SDS011;19139;49.372;8.580;2023-10-13T10:42:34;5.30;;;3.83;;
32786;SDS011;19139;49.372;8.580;2023-10-13T10:45:01;5.03;;;3.90;;
32786;SDS011;19139;49.372;8.580;2023-10-13T10:47:35;9.57;;;4.47;;
32786;SDS011;19139;49.372;8.580;2023-10-13T10:50:06;7.87;;;4.13;;
32786;SDS011;19139;49.372;8.580;2023-10-13T10:52:34;7.83;;;3.50;;
32786;SDS011;19139;49.372;8.580;2023-10-13T10:55:06;9.83;;;3.63;;
32786;SDS011;19139;49.372;8.580;2023-10-13T10:57:46;8.13;;;3.80;;
32786;SDS011;19139;49.372;8.580;2023-10-13T11:00:18;10.97;;;4.30;;
32786;SDS011;19139;49.372;8.580;2023-10-13T11:03:04;7.73;;;3.77;;
32786;SDS011;19139;49.372;8.580;2023-10-13T11:05:41;11.47;;;4.23;;
32786;SDS011;19139;49.372;8.580;2023-10-13T11:08:19;8.90;;;4.37;;
32786;SDS011;19139;49.372;8.580;2023-10-13T11:10:51;12.27;;;4.23;;
32786;SDS011;19139;49.372;8.580;2023-10-13T11:13:18;5.30;;;3.60;;
32786;SDS011;19139;49.372;8.580;2023-10-13T11:15:48;7.67;;;3.60;;
32786;SDS011;19139;49.372;8.580;2023-10-13T11:18:17;8.50;;;4.30;;
32786;SDS011;19139;49.372;8.580;2023-10-13T11:20:48;6.60;;;3.50;;
32786;SDS011;19139;49.372;8.580;2023-10-13T11:23:21;7.10;;;3.77;;
32786;SDS011;19139;49.372;8.580;2023-10-13T11:25:58;5.67;;;3.90;;
32786;SDS011;19139;49.372;8.580;2023-10-13T11:28:25;6.20;;;4.03;;
32786;SDS011;19139;49.372;8.580;2023-10-13T11:30:58;7.60;;;4.07;;
32786;SDS011;19139;49.372;8.580;2023-10-13T11:33:26;5.53;;;3.20;;
32786;SDS011;19139;49.372;8.580;2023-10-13T11:35:58;5.30;;;3.47;;
32786;SDS011;19139;49.372;8.580;2023-10-13T11:38:41;6.50;;;4.00;;
32786;SDS011;19139;49.372;8.580;2023-10-13T11:41:14;5.33;;;3.67;;
32786;SDS011;19139;49.372;8.580;2023-10-13T11:46:09;6.27;;;3.80;;
32786;SDS011;19139;49.372;8.580;2023-10-13T11:48:36;5.30;;;3.83;;
32786;SDS011;19139;49.372;8.580;2023-10-13T11:51:04;5.10;;;4.03;;
32786;SDS011;19139;49.372;8.580;2023-10-13T11:53:34;7.07;;;4.27;;
32786;SDS011;19139;49.372;8.580;2023-10-13T11:56:02;4.73;;;3.40;;
32786;SDS011;19139;49.372;8.580;2023-10-13T11:58:39;7.17;;;3.33;;
32786;SDS011;19139;49.372;8.580;2023-10-13T12:01:07;6.30;;;3.50;;
32786;SDS011;19139;49.372;8.580;2023-10-13T12:03:40;7.17;;;4.10;;
32786;SDS011;19139;49.372;8.580;2023-10-13T12:06:26;6.83;;;3.97;;
32786;SDS011;19139;49.372;8.580;2023-10-13T12:11:42;5.80;;;3.97;;
32786;SDS011;19139;49.372;8.580;2023-10-13T12:14:11;5.67;;;4.03;;
32786;SDS011;19139;49.372;8.580;2023-10-13T12:16:53;6.60;;;3.83;;
32786;SDS011;19139;49.372;8.580;2023-10-13T12:19:23;6.03;;;4.33;;
32786;SDS011;19139;49.372;8.580;2023-10-13T12:21:50;8.13;;;3.80;;
32786;SDS011;19139;49.372;8.580;2023-10-13T12:24:22;6.37;;;3.73;;
32786;SDS011;19139;49.372;8.580;2023-10-13T12:27:01;6.30;;;3.97;;
32786;SDS011;19139;49.372;8.580;2023-10-13T12:29:29;5.27;;;3.67;;
32786;SDS011;19139;49.372;8.580;2023-10-13T12:31:57;5.17;;;3.53;;
32786;SDS011;19139;49.372;8.580;2023-10-13T12:34:47;5.37;;;3.33;;
32786;SDS011;19139;49.372;8.580;2023-10-13T12:37:30;7.20;;;3.80;;
32786;SDS011;19139;49.372;8.580;2023-10-13T12:40:12;6.43;;;3.90;;
32786;SDS011;19139;49.372;8.580;2023-10-13T12:42:58;4.43;;;3.30;;
32786;SDS011;19139;49.372;8.580;2023-10-13T12:45:45;5.63;;;3.73;;
32786;SDS011;19139;49.372;8.580;2023-10-13T12:48:32;5.67;;;3.90;;
32786;SDS011;19139;49.372;8.580;2023-10-13T12:51:18;7.10;;;4.03;;
32786;SDS011;19139;49.372;8.580;2023-10-13T12:53:48;7.17;;;3.60;;
32786;SDS011;19139;49.372;8.580;2023-10-13T12:56:16;4.67;;;3.60;;
32786;SDS011;19139;49.372;8.580;2023-10-13T12:58:46;6.13;;;3.93;;
32786;SDS011;19139;49.372;8.580;2023-10-13T13:01:20;5.73;;;3.60;;
32786;SDS011;19139;49.372;8.580;2023-10-13T13:03:48;5.73;;;3.40;;
32786;SDS011;19139;49.372;8.580;2023-10-13T13:06:19;9.77;;;3.67;;
32786;SDS011;19139;49.372;8.580;2023-10-13T13:08:58;4.07;;;3.50;;
32786;SDS011;19139;49.372;8.580;2023-10-13T13:11:26;6.77;;;4.07;;
32786;SDS011;19139;49.372;8.580;2023-10-13T13:13:56;6.23;;;3.90;;
32786;SDS011;19139;49.372;8.580;2023-10-13T13:16:24;7.07;;;3.90;;
32786;SDS011;19139;49.372;8.580;2023-10-13T13:18:51;5.67;;;3.40;;
32786;SDS011;19139;49.372;8.580;2023-10-13T13:21:21;7.30;;;4.33;;
32786;SDS011;19139;49.372;8.580;2023-10-13T13:23:51;5.70;;;4.03;;
32786;SDS011;19139;49.372;8.580;2023-10-13T13:26:21;5.00;;;3.60;;
32786;SDS011;19139;49.372;8.580;2023-10-13T13:28:49;5.57;;;3.80;;
32786;SDS011;19139;49.372;8.580;2023-10-13T13:31:17;6.37;;;4.00;;
32786;SDS011;19139;49.372;8.580;2023-10-13T13:33:44;6.03;;;4.33;;
32786;SDS011;19139;49.372;8.580;2023-10-13T13:36:11;6.20;;;4.23;;
32786;SDS011;19139;49.372;8.580;2023-10-13T13:38:43;4.77;;;4.07;;
32786;SDS011;19139;49.372;8.580;2023-10-13T13:41:16;5.60;;;3.73;;
32786;SDS011;19139;49.372;8.580;2023-10-13T13:43:44;5.07;;;3.60;;
32786;SDS011;19139;49.372;8.580;2023-10-13T13:46:21;5.03;;;3.57;;
32786;SDS011;19139;49.372;8.580;2023-10-13T13:48:51;7.70;;;3.83;;
32786;SDS011;19139;49.372;8.580;2023-10-13T13:51:25;6.23;;;3.83;;
32786;SDS011;19139;49.372;8.580;2023-10-13T13:53:57;4.87;;;3.73;;
32786;SDS011;19139;49.372;8.580;2023-10-13T13:56:27;6.03;;;3.50;;
32786;SDS011;19139;49.372;8.580;2023-10-13T13:58:57;5.03;;;3.33;;
32786;SDS011;19139;49.372;8.580;2023-10-13T14:01:33;4.50;;;3.67;;
32786;SDS011;19139;49.372;8.580;2023-10-13T14:04:03;4.77;;;3.37;;
32786;SDS011;19139;49.372;8.580;2023-10-13T14:06:32;4.50;;;3.57;;
32786;SDS011;19139;49.372;8.580;2023-10-13T14:09:00;6.83;;;3.70;;
32786;SDS011;19139;49.372;8.580;2023-10-13T14:11:30;5.83;;;3.70;;
32786;SDS011;19139;49.372;8.580;2023-10-13T14:14:04;6.97;;;4.03;;
32786;SDS011;19139;49.372;8.580;2023-10-13T14:16:41;4.67;;;3.63;;
32786;SDS011;19139;49.372;8.580;2023-10-13T14:19:11;5.63;;;4.07;;
32786;SDS011;19139;49.372;8.580;2023-10-13T14:21:38;6.17;;;3.57;;
32786;SDS011;19139;49.372;8.580;2023-10-13T14:24:06;4.10;;;3.70;;
32786;SDS011;19139;49.372;8.580;2023-10-13T14:26:44;5.03;;;3.93;;
32786;SDS011;19139;49.372;8.580;2023-10-13T14:29:11;4.47;;;3.67;;
32786;SDS011;19139;49.372;8.580;2023-10-13T14:31:40;5.03;;;3.63;;
32786;SDS011;19139;49.372;8.580;2023-10-13T14:34:07;5.47;;;3.60;;
32786;SDS011;19139;49.372;8.580;2023-10-13T14:36:35;6.67;;;4.10;;
32786;SDS011;19139;49.372;8.580;2023-10-13T14:39:02;4.80;;;3.77;;
32786;SDS011;19139;49.372;8.580;2023-10-13T14:41:29;5.97;;;4.20;;
32786;SDS011;19139;49.372;8.580;2023-10-13T14:43:57;5.80;;;3.60;;
32786;SDS011;19139;49.372;8.580;2023-10-13T14:46:31;5.70;;;3.70;;
32786;SDS011;19139;49.372;8.580;2023-10-13T14:49:02;7.57;;;4.07;;
32786;SDS011;19139;49.372;8.580;2023-10-13T14:51:29;4.40;;;3.37;;
32786;SDS011;19139;49.372;8.580;2023-10-13T14:53:58;7.23;;;4.10;;
32786;SDS011;19139;49.372;8.580;2023-10-13T14:56:26;5.47;;;3.90;;
32786;SDS011;19139;49.372;8.580;2023-10-13T14:58:54;4.77;;;3.50;;
32786;SDS011;19139;49.372;8.580;2023-10-13T15:01:21;4.63;;;3.17;;
32786;SDS011;19139;49.372;8.580;2023-10-13T15:03:51;4.60;;;3.27;;
32786;SDS011;19139;49.372;8.580;2023-10-13T15:06:22;4.77;;;3.47;;
32786;SDS011;19139;49.372;8.580;2023-10-13T15:08:51;6.13;;;3.70;;
32786;SDS011;19139;49.372;8.580;2023-10-13T15:11:21;4.67;;;3.03;;
32786;SDS011;19139;49.372;8.580;2023-10-13T15:13:53;4.33;;;3.73;;
32786;SDS011;19139;49.372;8.580;2023-10-13T15:16:21;6.27;;;3.90;;
32786;SDS011;19139;49.372;8.580;2023-10-13T15:18:48;6.03;;;3.80;;
32786;SDS011;19139;49.372;8.580;2023-10-13T15:23:47;5.60;;;3.23;;
32786;SDS011;19139;49.372;8.580;2023-10-13T15:26:14;5.33;;;3.83;;
32786;SDS011;19139;49.372;8.580;2023-10-13T15:28:41;4.63;;;3.80;;
32786;SDS011;19139;49.372;8.580;2023-10-13T15:31:18;6.47;;;3.90;;
32786;SDS011;19139;49.372;8.580;2023-10-13T15:34:01;6.87;;;4.37;;
32786;SDS011;19139;49.372;8.580;2023-10-13T15:36:35;5.17;;;3.53;;
32786;SDS011;19139;49.372;8.580;2023-10-13T15:39:05;4.30;;;3.70;;
32786;SDS011;19139;49.372;8.580;2023-10-13T15:41:36;5.20;;;3.50;;
32786;SDS011;19139;49.372;8.580;2023-10-13T15:44:12;6.17;;;3.60;;
32786;SDS011;19139;49.372;8.580;2023-10-13T15:46:39;6.30;;;3.60;;
32786;SDS011;19139;49.372;8.580;2023-10-13T15:49:09;4.97;;;3.93;;
32786;SDS011;19139;49.372;8.580;2023-10-13T15:51:40;3.97;;;3.30;;